sensor_id;sensor_type;location;lat;lon;timestamp;pressure;altitude;pressure_sealevel;temperature;humidity
61337;BME280;47212;41.326;2.104;2024-02-28T00:04:08;100923.88;;;14.48;73.61
61337;BME280;47212;41.326;2.104;2024-02-28T00:09:25;100927.44;;;14.49;72.85
61337;BME280;47212;41.326;2.104;2024-02-28T00:15:10;100928.25;;;14.49;73.02
61337;BME280;47212;41.326;2.104;2024-02-28T00:20:18;100921.69;;;14.50;72.68
61337;BME280;47212;41.326;2.104;2024-02-28T00:25:26;100908.84;;;14.46;74.40
61337;BME280;47212;41.326;2.104;2024-02-28T00:30:33;100914.59;;;14.44;72.10
61337;BME280;47212;41.326;2.104;2024-02-28T00:35:56;100923.63;;;14.45;71.23
61337;BME280;47212;41.326;2.104;2024-02-28T00:40:58;100930.50;;;14.42;70.79
61337;BME280;47212;41.326;2.104;2024-02-28T00:46:02;100946.34;;;14.40;70.63
61337;BME280;47212;41.326;2.104;2024-02-28T00:51:11;100941.97;;;14.39;69.16
61337;BME280;47212;41.326;2.104;2024-02-28T00:56:18;100944.75;;;14.34;65.85
61337;BME280;47212;41.326;2.104;2024-02-28T01:01:21;100949.19;;;14.25;62.07
61337;BME280;47212;41.326;2.104;2024-02-28T01:06:31;100948.94;;;14.16;53.72
61337;BME280;47212;41.326;2.104;2024-02-28T01:11:39;100955.56;;;14.10;54.21
61337;BME280;47212;41.326;2.104;2024-02-28T01:16:41;100974.47;;;14.01;46.09
61337;BME280;47212;41.326;2.104;2024-02-28T01:21:52;100972.84;;;14.00;49.87
61337;BME280;47212;41.326;2.104;2024-02-28T01:26:55;100963.56;;;13.91;50.21
61337;BME280;47212;41.326;2.104;2024-02-28T01:32:09;100973.94;;;13.84;46.31
61337;BME280;47212;41.326;2.104;2024-02-28T01:37:14;100977.81;;;13.78;48.37
61337;BME280;47212;41.326;2.104;2024-02-28T01:42:16;100991.22;;;13.75;47.93
61337;BME280;47212;41.326;2.104;2024-02-28T01:47:30;100991.22;;;13.69;47.11
61337;BME280;47212;41.326;2.104;2024-02-28T01:52:38;100997.78;;;13.68;46.19
61337;BME280;47212;41.326;2.104;2024-02-28T01:57:44;101001.63;;;13.67;47.11
61337;BME280;47212;41.326;2.104;2024-02-28T02:05:13;101010.94;;;13.66;46.35
61337;BME280;47212;41.326;2.104;2024-02-28T02:10:17;101018.59;;;13.64;46.28
61337;BME280;47212;41.326;2.104;2024-02-28T02:15:27;101015.31;;;13.62;45.52
61337;BME280;47212;41.326;2.104;2024-02-28T02:20:38;101019.97;;;13.62;43.63
61337;BME280;47212;41.326;2.104;2024-02-28T02:25:53;101023.78;;;13.61;44.72
61337;BME280;47212;41.326;2.104;2024-02-28T02:30:59;101022.72;;;13.57;45.00
61337;BME280;47212;41.326;2.104;2024-02-28T02:36:04;101027.09;;;13.53;44.63
61337;BME280;47212;41.326;2.104;2024-02-28T02:41:08;101024.91;;;13.50;45.00
61337;BME280;47212;41.326;2.104;2024-02-28T02:46:11;101030.38;;;13.45;44.61
61337;BME280;47212;41.326;2.104;2024-02-28T02:51:15;101020.53;;;13.38;40.68
61337;BME280;47212;41.326;2.104;2024-02-28T02:56:23;101022.72;;;13.36;43.10
61337;BME280;47212;41.326;2.104;2024-02-28T03:01:33;101016.72;;;13.34;44.18
61337;BME280;47212;41.326;2.104;2024-02-28T03:06:35;101033.13;;;13.29;43.42
61337;BME280;47212;41.326;2.104;2024-02-28T03:11:54;101040.78;;;13.22;43.18
61337;BME280;47212;41.326;2.104;2024-02-28T03:17:02;101040.75;;;13.17;43.26
61337;BME280;47212;41.326;2.104;2024-02-28T03:22:04;101054.66;;;13.16;43.67
61337;BME280;47212;41.326;2.104;2024-02-28T03:27:06;101044.28;;;13.13;41.01
61337;BME280;47212;41.326;2.104;2024-02-28T03:32:11;101049.47;;;13.14;43.67
61337;BME280;47212;41.326;2.104;2024-02-28T03:37:14;101045.94;;;13.14;43.73
61337;BME280;47212;41.326;2.104;2024-02-28T03:42:16;101048.09;;;13.12;43.77
61337;BME280;47212;41.326;2.104;2024-02-28T03:47:33;101050.28;;;13.10;43.00
61337;BME280;47212;41.326;2.104;2024-02-28T03:52:37;101052.75;;;13.06;42.88
61337;BME280;47212;41.326;2.104;2024-02-28T03:57:40;101064.22;;;13.03;43.50
61337;BME280;47212;41.326;2.104;2024-02-28T04:02:51;101061.19;;;12.99;43.80
61337;BME280;47212;41.326;2.104;2024-02-28T04:07:53;101060.06;;;12.95;43.57
61337;BME280;47212;41.326;2.104;2024-02-28T04:12:55;101056.50;;;12.90;43.15
61337;BME280;47212;41.326;2.104;2024-02-28T04:17:57;101064.97;;;12.83;39.98
61337;BME280;47212;41.326;2.104;2024-02-28T04:22:59;101064.13;;;12.77;43.27
61337;BME280;47212;41.326;2.104;2024-02-28T04:28:02;101087.06;;;12.71;42.79
61337;BME280;47212;41.326;2.104;2024-02-28T04:33:08;101079.97;;;12.70;42.00
61337;BME280;47212;41.326;2.104;2024-02-28T04:38:21;101076.69;;;12.68;41.86
61337;BME280;47212;41.326;2.104;2024-02-28T04:43:28;101082.66;;;12.65;43.48
61337;BME280;47212;41.326;2.104;2024-02-28T04:48:35;101082.13;;;12.63;43.54
61337;BME280;47212;41.326;2.104;2024-02-28T04:53:41;101099.88;;;12.61;42.43
61337;BME280;47212;41.326;2.104;2024-02-28T04:58:58;101090.28;;;12.58;42.75
61337;BME280;47212;41.326;2.104;2024-02-28T05:04:01;101092.75;;;12.55;42.99
61337;BME280;47212;41.326;2.104;2024-02-28T05:09:04;101096.28;;;12.55;42.95
61337;BME280;47212;41.326;2.104;2024-02-28T05:14:06;101102.28;;;12.52;43.40
61337;BME280;47212;41.326;2.104;2024-02-28T05:19:09;101101.72;;;12.50;42.89
61337;BME280;47212;41.326;2.104;2024-02-28T05:24:12;101099.25;;;12.49;43.56
61337;BME280;47212;41.326;2.104;2024-02-28T05:29:14;101102.25;;;12.47;42.98
61337;BME280;47212;41.326;2.104;2024-02-28T05:34:16;101097.59;;;12.42;42.94
61337;BME280;47212;41.326;2.104;2024-02-28T05:39:18;101107.13;;;12.35;41.30
61337;BME280;47212;41.326;2.104;2024-02-28T05:44:21;101109.25;;;12.28;43.30
61337;BME280;47212;41.326;2.104;2024-02-28T05:49:23;101111.97;;;12.23;43.49
61337;BME280;47212;41.326;2.104;2024-02-28T05:54:25;101112.69;;;12.13;41.59
61337;BME280;47212;41.326;2.104;2024-02-28T05:59:31;101110.75;;;12.08;43.32
61337;BME280;47212;41.326;2.104;2024-02-28T06:04:33;101116.72;;;12.00;41.98
61337;BME280;47212;41.326;2.104;2024-02-28T06:09:35;101110.44;;;12.00;42.93
61337;BME280;47212;41.326;2.104;2024-02-28T06:14:38;101104.13;;;11.94;43.28
61337;BME280;47212;41.326;2.104;2024-02-28T06:19:40;101120.72;;;11.88;43.56
61337;BME280;47212;41.326;2.104;2024-02-28T06:24:42;101129.94;;;11.82;41.94
61337;BME280;47212;41.326;2.104;2024-02-28T06:29:44;101136.50;;;11.86;43.40
61337;BME280;47212;41.326;2.104;2024-02-28T06:34:47;101142.28;;;11.89;43.61
61337;BME280;47212;41.326;2.104;2024-02-28T06:39:49;101152.63;;;11.87;42.12
61337;BME280;47212;41.326;2.104;2024-02-28T06:44:51;101150.47;;;11.89;43.60
61337;BME280;47212;41.326;2.104;2024-02-28T06:49:53;101172.28;;;11.89;41.93
61337;BME280;47212;41.326;2.104;2024-02-28T06:54:56;101169.56;;;11.89;43.60
61337;BME280;47212;41.326;2.104;2024-02-28T06:59:59;101170.13;;;11.91;43.25
61337;BME280;47212;41.326;2.104;2024-02-28T07:05:02;101189.22;;;11.91;41.30
61337;BME280;47212;41.326;2.104;2024-02-28T07:10:07;101180.25;;;11.96;43.06
61337;BME280;47212;41.326;2.104;2024-02-28T07:15:09;101192.03;;;12.01;43.13
61337;BME280;47212;41.326;2.104;2024-02-28T07:20:11;101198.59;;;12.05;42.91
61337;BME280;47212;41.326;2.104;2024-02-28T07:25:14;101193.69;;;12.07;43.03
61337;BME280;47212;41.326;2.104;2024-02-28T07:30:16;101199.16;;;12.07;41.76
61337;BME280;47212;41.326;2.104;2024-02-28T07:35:19;101215.34;;;12.14;43.36
61337;BME280;47212;41.326;2.104;2024-02-28T07:40:22;101229.28;;;12.18;42.74
61337;BME280;47212;41.326;2.104;2024-02-28T07:45:24;101234.78;;;12.23;43.49
61337;BME280;47212;41.326;2.104;2024-02-28T07:50:27;101239.75;;;12.31;42.65
61337;BME280;47212;41.326;2.104;2024-02-28T07:55:29;101244.41;;;12.30;42.91
61337;BME280;47212;41.326;2.104;2024-02-28T08:00:31;101247.38;;;12.29;43.20
61337;BME280;47212;41.326;2.104;2024-02-28T08:05:38;101265.41;;;12.30;42.88
61337;BME280;47212;41.326;2.104;2024-02-28T08:10:41;101287.03;;;12.36;43.38
61337;BME280;47212;41.326;2.104;2024-02-28T08:15:46;101278.06;;;12.41;42.05
61337;BME280;47212;41.326;2.104;2024-02-28T08:20:52;101277.22;;;12.40;42.02
61337;BME280;47212;41.326;2.104;2024-02-28T08:25:55;101282.91;;;12.34;42.35
61337;BME280;47212;41.326;2.104;2024-02-28T08:30:58;101291.38;;;12.32;42.36
61337;BME280;47212;41.326;2.104;2024-02-28T08:36:01;101318.66;;;12.32;42.54
61337;BME280;47212;41.326;2.104;2024-02-28T08:41:03;101319.47;;;12.33;42.21
61337;BME280;47212;41.326;2.104;2024-02-28T08:46:05;101325.50;;;12.35;40.48
61337;BME280;47212;41.326;2.104;2024-02-28T08:51:07;101327.47;;;12.39;42.49
61337;BME280;47212;41.326;2.104;2024-02-28T08:56:09;101315.75;;;12.44;42.27
61337;BME280;47212;41.326;2.104;2024-02-28T09:01:15;101324.28;;;12.53;42.26
61337;BME280;47212;41.326;2.104;2024-02-28T09:06:18;101325.16;;;12.58;42.28
61337;BME280;47212;41.326;2.104;2024-02-28T09:11:20;101332.25;;;12.59;40.01
61337;BME280;47212;41.326;2.104;2024-02-28T09:16:22;101336.41;;;12.67;42.13
61337;BME280;47212;41.326;2.104;2024-02-28T09:21:24;101333.41;;;12.68;40.25
61337;BME280;47212;41.326;2.104;2024-02-28T09:26:27;101347.63;;;12.70;41.37
61337;BME280;47212;41.326;2.104;2024-02-28T09:31:29;101346.03;;;12.74;41.71
61337;BME280;47212;41.326;2.104;2024-02-28T09:36:31;101351.19;;;12.71;39.79
61337;BME280;47212;41.326;2.104;2024-02-28T09:41:33;101350.94;;;12.72;41.39
61337;BME280;47212;41.326;2.104;2024-02-28T09:46:35;101352.56;;;12.73;41.61
61337;BME280;47212;41.326;2.104;2024-02-28T09:51:38;101359.16;;;12.77;41.13
61337;BME280;47212;41.326;2.104;2024-02-28T09:56:40;101364.41;;;12.84;41.22
61337;BME280;47212;41.326;2.104;2024-02-28T10:01:43;101363.09;;;12.92;41.20
61337;BME280;47212;41.326;2.104;2024-02-28T10:06:51;101384.53;;;13.05;41.28
61337;BME280;47212;41.326;2.104;2024-02-28T10:11:53;101393.94;;;13.19;41.52
61337;BME280;47212;41.326;2.104;2024-02-28T10:16:56;101402.75;;;13.31;41.18
61337;BME280;47212;41.326;2.104;2024-02-28T10:22:02;101420.06;;;13.42;41.11
61337;BME280;47212;41.326;2.104;2024-02-28T10:27:05;101420.09;;;13.52;41.21
61337;BME280;47212;41.326;2.104;2024-02-28T10:32:11;101424.28;;;13.65;41.19
61337;BME280;47212;41.326;2.104;2024-02-28T10:37:13;101424.84;;;13.72;40.67
61337;BME280;47212;41.326;2.104;2024-02-28T10:42:15;101438.25;;;13.74;38.94
61337;BME280;47212;41.326;2.104;2024-02-28T10:47:18;101443.50;;;13.80;40.86
61337;BME280;47212;41.326;2.104;2024-02-28T10:52:22;101445.13;;;13.81;40.68
61337;BME280;47212;41.326;2.104;2024-02-28T10:57:24;101457.47;;;13.84;41.00
61337;BME280;47212;41.326;2.104;2024-02-28T11:02:27;101443.25;;;13.87;40.67
61337;BME280;47212;41.326;2.104;2024-02-28T11:07:30;101440.28;;;13.88;38.53
61337;BME280;47212;41.326;2.104;2024-02-28T11:12:32;101444.69;;;13.99;40.45
61337;BME280;47212;41.326;2.104;2024-02-28T11:17:35;101434.88;;;14.09;40.55
61337;BME280;47212;41.326;2.104;2024-02-28T11:22:37;101433.53;;;14.16;38.43
61337;BME280;47212;41.326;2.104;2024-02-28T11:27:46;101408.91;;;14.26;39.70
61337;BME280;47212;41.326;2.104;2024-02-28T11:32:52;101411.13;;;14.34;40.47
61337;BME280;47212;41.326;2.104;2024-02-28T11:38:01;101387.34;;;14.45;40.25
61337;BME280;47212;41.326;2.104;2024-02-28T11:43:03;101390.63;;;14.73;37.52
61337;BME280;47212;41.326;2.104;2024-02-28T11:48:06;101395.53;;;15.32;38.61
61337;BME280;47212;41.326;2.104;2024-02-28T11:53:08;101390.44;;;15.89;38.20
61337;BME280;47212;41.326;2.104;2024-02-28T11:58:11;101375.44;;;16.60;37.19
61337;BME280;47212;41.326;2.104;2024-02-28T12:03:13;101363.13;;;17.15;33.29
61337;BME280;47212;41.326;2.104;2024-02-28T12:08:17;101361.78;;;17.61;35.00
61337;BME280;47212;41.326;2.104;2024-02-28T12:13:20;101363.28;;;17.96;35.92
61337;BME280;47212;41.326;2.104;2024-02-28T12:18:28;101360.19;;;18.21;35.26
61337;BME280;47212;41.326;2.104;2024-02-28T12:23:30;101351.00;;;18.44;34.96
61337;BME280;47212;41.326;2.104;2024-02-28T12:28:33;101333.25;;;18.69;34.51
61337;BME280;47212;41.326;2.104;2024-02-28T12:33:35;101329.91;;;18.86;34.18
61337;BME280;47212;41.326;2.104;2024-02-28T12:38:37;101335.00;;;19.12;33.67
61337;BME280;47212;41.326;2.104;2024-02-28T12:43:40;101330.50;;;19.29;32.95
61337;BME280;47212;41.326;2.104;2024-02-28T12:48:42;101330.91;;;19.50;32.39
61337;BME280;47212;41.326;2.104;2024-02-28T12:53:44;101322.53;;;19.55;32.38
61337;BME280;47212;41.326;2.104;2024-02-28T12:58:52;101310.66;;;19.68;32.04
61337;BME280;47212;41.326;2.104;2024-02-28T13:03:55;101315.66;;;19.80;31.24
61337;BME280;47212;41.326;2.104;2024-02-28T13:08:57;101317.94;;;19.64;33.89
61337;BME280;47212;41.326;2.104;2024-02-28T13:14:00;101323.03;;;19.30;33.81
61337;BME280;47212;41.326;2.104;2024-02-28T13:19:03;101308.88;;;18.90;34.76
61337;BME280;47212;41.326;2.104;2024-02-28T13:24:06;101309.28;;;18.51;35.57
61337;BME280;47212;41.326;2.104;2024-02-28T13:29:10;101315.78;;;18.04;36.71
61337;BME280;47212;41.326;2.104;2024-02-28T13:34:12;101310.38;;;17.56;37.26
61337;BME280;47212;41.326;2.104;2024-02-28T13:39:14;101313.00;;;17.18;37.71
61337;BME280;47212;41.326;2.104;2024-02-28T13:44:18;101303.34;;;17.21;36.97
61337;BME280;47212;41.326;2.104;2024-02-28T13:49:20;101316.34;;;17.15;36.75
61337;BME280;47212;41.326;2.104;2024-02-28T13:54:23;101313.31;;;16.93;36.77
61337;BME280;47212;41.326;2.104;2024-02-28T13:59:25;101317.78;;;16.84;37.08
61337;BME280;47212;41.326;2.104;2024-02-28T14:04:27;101320.34;;;16.75;37.86
61337;BME280;47212;41.326;2.104;2024-02-28T14:09:29;101323.97;;;16.71;37.94
61337;BME280;47212;41.326;2.104;2024-02-28T14:14:32;101328.13;;;16.68;38.24
61337;BME280;47212;41.326;2.104;2024-02-28T14:19:34;101323.53;;;16.53;37.84
61337;BME280;47212;41.326;2.104;2024-02-28T14:24:37;101343.41;;;16.40;38.28
61337;BME280;47212;41.326;2.104;2024-02-28T14:29:41;101334.72;;;16.28;37.65
61337;BME280;47212;41.326;2.104;2024-02-28T14:34:43;101344.69;;;16.14;37.67
61337;BME280;47212;41.326;2.104;2024-02-28T14:39:46;101345.84;;;16.08;37.66
61337;BME280;47212;41.326;2.104;2024-02-28T14:44:48;101343.00;;;16.23;37.92
61337;BME280;47212;41.326;2.104;2024-02-28T14:49:50;101339.63;;;16.31;38.84
61337;BME280;47212;41.326;2.104;2024-02-28T14:54:54;101346.66;;;16.08;38.32
61337;BME280;47212;41.326;2.104;2024-02-28T14:59:57;101351.97;;;15.95;38.55
61337;BME280;47212;41.326;2.104;2024-02-28T15:04:59;101356.31;;;16.01;39.54
61337;BME280;47212;41.326;2.104;2024-02-28T15:10:02;101343.75;;;15.89;41.19
61337;BME280;47212;41.326;2.104;2024-02-28T15:15:06;101332.25;;;15.82;42.28
61337;BME280;47212;41.326;2.104;2024-02-28T15:20:16;101321.25;;;15.87;42.76
61337;BME280;47212;41.326;2.104;2024-02-28T15:25:19;101342.38;;;15.92;43.05
61337;BME280;47212;41.326;2.104;2024-02-28T15:30:22;101329.75;;;15.91;42.67
61337;BME280;47212;41.326;2.104;2024-02-28T15:35:26;101340.47;;;15.87;43.12
61337;BME280;47212;41.326;2.104;2024-02-28T15:40:30;101331.25;;;15.68;43.50
61337;BME280;47212;41.326;2.104;2024-02-28T15:45:36;101318.34;;;15.58;44.94
61337;BME280;47212;41.326;2.104;2024-02-28T15:50:40;101320.56;;;15.62;44.42
61337;BME280;47212;41.326;2.104;2024-02-28T15:55:43;101329.59;;;15.67;44.81
61337;BME280;47212;41.326;2.104;2024-02-28T16:00:48;101329.03;;;15.70;44.86
61337;BME280;47212;41.326;2.104;2024-02-28T16:05:52;101340.84;;;15.71;44.07
61337;BME280;47212;41.326;2.104;2024-02-28T16:10:56;101334.53;;;15.70;44.24
61337;BME280;47212;41.326;2.104;2024-02-28T16:16:00;101337.84;;;15.62;44.20
61337;BME280;47212;41.326;2.104;2024-02-28T16:21:03;101329.31;;;15.53;44.77
61337;BME280;47212;41.326;2.104;2024-02-28T16:26:06;101334.03;;;15.43;44.58
61337;BME280;47212;41.326;2.104;2024-02-28T16:31:10;101333.50;;;15.36;44.50
61337;BME280;47212;41.326;2.104;2024-02-28T16:36:13;101335.72;;;15.34;44.75
61337;BME280;47212;41.326;2.104;2024-02-28T16:41:15;101328.31;;;15.29;44.95
61337;BME280;47212;41.326;2.104;2024-02-28T16:46:18;101329.16;;;15.29;45.12
61337;BME280;47212;41.326;2.104;2024-02-28T16:51:21;101349.19;;;15.25;44.67
61337;BME280;47212;41.326;2.104;2024-02-28T16:56:23;101357.69;;;15.23;45.01
61337;BME280;47212;41.326;2.104;2024-02-28T17:01:26;101363.75;;;15.15;45.07
61337;BME280;47212;41.326;2.104;2024-02-28T17:06:28;101357.44;;;15.10;45.40
61337;BME280;47212;41.326;2.104;2024-02-28T17:11:30;101348.69;;;15.08;46.48
61337;BME280;47212;41.326;2.104;2024-02-28T17:16:32;101344.59;;;15.00;45.74
61337;BME280;47212;41.326;2.104;2024-02-28T17:21:35;101359.41;;;14.89;46.32
61337;BME280;47212;41.326;2.104;2024-02-28T17:26:40;101366.53;;;14.80;47.15
61337;BME280;47212;41.326;2.104;2024-02-28T17:31:47;101359.94;;;14.71;47.58
61337;BME280;47212;41.326;2.104;2024-02-28T17:36:53;101371.19;;;14.64;47.71
61337;BME280;47212;41.326;2.104;2024-02-28T17:41:55;101375.28;;;14.56;48.25
61337;BME280;47212;41.326;2.104;2024-02-28T17:47:00;101368.72;;;14.52;48.86
61337;BME280;47212;41.326;2.104;2024-02-28T17:52:05;101376.66;;;14.49;48.35
61337;BME280;47212;41.326;2.104;2024-02-28T17:57:08;101372.53;;;14.46;48.75
61337;BME280;47212;41.326;2.104;2024-02-28T18:02:11;101369.53;;;14.43;49.49
61337;BME280;47212;41.326;2.104;2024-02-28T18:07:13;101368.72;;;14.42;49.64
61337;BME280;47212;41.326;2.104;2024-02-28T18:12:15;101367.03;;;14.41;49.73
61337;BME280;47212;41.326;2.104;2024-02-28T18:17:17;101373.31;;;14.37;50.14
61337;BME280;47212;41.326;2.104;2024-02-28T18:22:20;101371.13;;;14.33;50.04
61337;BME280;47212;41.326;2.104;2024-02-28T18:27:22;101380.16;;;14.29;50.10
61337;BME280;47212;41.326;2.104;2024-02-28T18:32:25;101397.69;;;14.28;50.18
61337;BME280;47212;41.326;2.104;2024-02-28T18:37:28;101393.84;;;14.24;50.05
61337;BME280;47212;41.326;2.104;2024-02-28T18:42:32;101399.03;;;14.20;49.81
61337;BME280;47212;41.326;2.104;2024-02-28T18:47:35;101395.75;;;14.18;49.22
61337;BME280;47212;41.326;2.104;2024-02-28T18:52:38;101402.06;;;14.19;48.81
61337;BME280;47212;41.326;2.104;2024-02-28T18:57:40;101410.81;;;14.16;48.28
61337;BME280;47212;41.326;2.104;2024-02-28T19:02:42;101406.41;;;14.15;48.33
61337;BME280;47212;41.326;2.104;2024-02-28T19:07:46;101402.31;;;14.12;48.24
61337;BME280;47212;41.326;2.104;2024-02-28T19:12:50;101401.75;;;14.10;47.85
61337;BME280;47212;41.326;2.104;2024-02-28T19:17:54;101412.97;;;14.09;47.75
61337;BME280;47212;41.326;2.104;2024-02-28T19:22:58;101415.16;;;14.07;47.88
61337;BME280;47212;41.326;2.104;2024-02-28T19:28:00;101407.50;;;14.03;47.88
61337;BME280;47212;41.326;2.104;2024-02-28T19:33:03;101399.25;;;13.98;48.28
61337;BME280;47212;41.326;2.104;2024-02-28T19:38:05;101399.25;;;13.93;47.56
61337;BME280;47212;41.326;2.104;2024-02-28T19:43:08;101379.25;;;13.88;47.52
61337;BME280;47212;41.326;2.104;2024-02-28T19:48:10;101374.56;;;13.83;47.02
61337;BME280;47212;41.326;2.104;2024-02-28T19:53:14;101392.06;;;13.82;46.66
61337;BME280;47212;41.326;2.104;2024-02-28T19:58:19;101405.19;;;13.80;46.54
61337;BME280;47212;41.326;2.104;2024-02-28T20:03:21;101413.94;;;13.77;46.68
61337;BME280;47212;41.326;2.104;2024-02-28T20:08:26;101437.97;;;13.70;45.71
61337;BME280;47212;41.326;2.104;2024-02-28T20:13:29;101447.50;;;13.62;47.07
61337;BME280;47212;41.326;2.104;2024-02-28T20:18:31;101457.56;;;13.52;46.95
61337;BME280;47212;41.326;2.104;2024-02-28T20:23:34;101455.06;;;13.45;47.33
61337;BME280;47212;41.326;2.104;2024-02-28T20:28:36;101450.97;;;13.43;47.41
61337;BME280;47212;41.326;2.104;2024-02-28T20:33:38;101463.25;;;13.40;47.39
61337;BME280;47212;41.326;2.104;2024-02-28T20:38:41;101461.84;;;13.37;47.21
61337;BME280;47212;41.326;2.104;2024-02-28T20:43:43;101466.78;;;13.35;47.41
61337;BME280;47212;41.326;2.104;2024-02-28T20:48:45;101472.25;;;13.35;47.76
61337;BME280;47212;41.326;2.104;2024-02-28T20:53:49;101482.63;;;13.33;47.46
61337;BME280;47212;41.326;2.104;2024-02-28T20:59:04;101487.53;;;13.31;47.01
61337;BME280;47212;41.326;2.104;2024-02-28T21:04:07;101487.78;;;13.30;47.60
61337;BME280;47212;41.326;2.104;2024-02-28T21:09:09;101485.31;;;13.28;47.38
61337;BME280;47212;41.326;2.104;2024-02-28T21:14:12;101478.72;;;13.24;47.30
61337;BME280;47212;41.326;2.104;2024-02-28T21:19:14;101468.00;;;13.18;47.64
61337;BME280;47212;41.326;2.104;2024-02-28T21:24:18;101455.63;;;13.10;47.33
61337;BME280;47212;41.326;2.104;2024-02-28T21:29:21;101445.75;;;13.04;47.60
61337;BME280;47212;41.326;2.104;2024-02-28T21:34:23;101442.63;;;12.95;47.86
61337;BME280;47212;41.326;2.104;2024-02-28T21:39:28;101443.13;;;12.87;47.62
61337;BME280;47212;41.326;2.104;2024-02-28T21:44:37;101442.25;;;12.82;47.40
61337;BME280;47212;41.326;2.104;2024-02-28T21:49:40;101425.75;;;12.71;47.33
61337;BME280;47212;41.326;2.104;2024-02-28T21:54:44;101435.53;;;12.62;47.71
61337;BME280;47212;41.326;2.104;2024-02-28T21:59:46;101434.34;;;12.53;46.82
61337;BME280;47212;41.326;2.104;2024-02-28T22:04:52;101423.31;;;12.43;47.00
61337;BME280;47212;41.326;2.104;2024-02-28T22:09:55;101429.25;;;12.35;47.34
61337;BME280;47212;41.326;2.104;2024-02-28T22:14:57;101417.97;;;12.26;46.53
61337;BME280;47212;41.326;2.104;2024-02-28T22:19:59;101406.75;;;12.23;46.93
61337;BME280;47212;41.326;2.104;2024-02-28T22:25:01;101429.09;;;12.20;46.68
61337;BME280;47212;41.326;2.104;2024-02-28T22:30:05;101421.41;;;12.17;47.26
61337;BME280;47212;41.326;2.104;2024-02-28T22:35:08;101431.41;;;12.11;47.04
61337;BME280;47212;41.326;2.104;2024-02-28T22:40:16;101431.63;;;12.04;46.94
61337;BME280;47212;41.326;2.104;2024-02-28T22:45:21;101427.19;;;11.98;46.35
61337;BME280;47212;41.326;2.104;2024-02-28T22:50:23;101423.31;;;11.94;46.59
61337;BME280;47212;41.326;2.104;2024-02-28T22:55:25;101422.75;;;11.92;46.71
61337;BME280;47212;41.326;2.104;2024-02-28T23:00:27;101425.16;;;11.89;46.67
61337;BME280;47212;41.326;2.104;2024-02-28T23:05:35;101427.06;;;11.88;47.31
61337;BME280;47212;41.326;2.104;2024-02-28T23:10:37;101430.53;;;11.84;47.31
61337;BME280;47212;41.326;2.104;2024-02-28T23:15:39;101448.97;;;11.76;47.42
61337;BME280;47212;41.326;2.104;2024-02-28T23:20:42;101447.75;;;11.67;47.89
61337;BME280;47212;41.326;2.104;2024-02-28T23:25:45;101443.81;;;11.58;48.13
61337;BME280;47212;41.326;2.104;2024-02-28T23:30:47;101443.44;;;11.49;48.47
61337;BME280;47212;41.326;2.104;2024-02-28T23:35:49;101441.97;;;11.42;49.51
61337;BME280;47212;41.326;2.104;2024-02-28T23:40:51;101438.84;;;11.33;48.98
61337;BME280;47212;41.326;2.104;2024-02-28T23:45:55;101430.16;;;11.20;49.24
61337;BME280;47212;41.326;2.104;2024-02-28T23:50:58;101427.84;;;11.11;49.89
61337;BME280;47212;41.326;2.104;2024-02-28T23:56:00;101418.78;;;11.06;49.92
